Time;durP1;ratioP1;P1;durP2;ratioP2;P2;SDS_P1;SDS_P2;PMS_P1;PMS_P2;Temp;Humidity;BMP_temperature;BMP_pressure;BME280_temperature;BME280_humidity;BME280_pressure;Samples;Min_cycle;Max_cycle;Signal;HPM_P1;HPM_P2
2022/09/25 00:02:14;;;;;;;12.73;11.63;;;15.20;99.90;;;;;;6054470;23;20789;-82
2022/09/25 00:04:42;;;;;;;12.70;11.60;;;15.20;99.90;;;;;;6068527;23;20440;-78
2022/09/25 00:07:12;;;;;;;12.80;11.70;;;15.20;99.90;;;;;;6068106;23;20460;-80
2022/09/25 00:09:39;;;;;;;11.47;10.53;;;15.20;99.90;;;;;;6069579;23;20716;-81
2022/09/25 00:12:09;;;;;;;12.30;11.30;;;15.20;99.90;;;;;;6068776;23;20476;-81
2022/09/25 00:14:37;;;;;;;12.23;11.13;;;15.20;99.90;;;;;;6069059;23;20439;-80
2022/09/25 00:17:04;;;;;;;11.07;10.10;;;15.20;99.90;;;;;;6067990;23;20437;-78
2022/09/25 00:22:15;;;;;;;11.83;10.83;;;15.20;99.90;;;;;;6068605;23;20499;-77
2022/09/25 00:24:43;;;;;;;11.47;10.53;;;15.20;99.90;;;;;;6069201;23;20452;-80
2022/09/25 00:27:10;;;;;;;11.30;10.43;;;15.20;99.90;;;;;;6069092;23;20507;-78
2022/09/25 00:29:44;;;;;;;12.23;11.13;;;15.10;99.90;;;;;;6069009;23;20500;-77
2022/09/25 00:32:12;;;;;;;10.10;9.20;;;15.10;99.90;;;;;;6068746;23;20779;-78
2022/09/25 00:34:40;;;;;;;9.80;8.80;;;15.20;99.90;;;;;;6055027;23;20475;-77
2022/09/25 00:37:07;;;;;;;10.50;9.60;;;15.10;99.90;;;;;;6068412;23;20819;-76
2022/09/25 00:39:35;;;;;;;10.90;10.00;;;15.10;99.90;;;;;;6054137;23;20453;-78
2022/09/25 00:42:02;;;;;;;8.77;8.07;;;15.10;99.90;;;;;;6068701;23;20510;-77
2022/09/25 00:45:01;;;;;;;8.43;7.73;;;15.10;99.90;;;;;;6068490;23;20800;-77
2022/09/25 00:47:41;;;;;;;10.13;9.33;;;15.10;99.90;;;;;;6068879;23;20444;-79
2022/09/25 00:50:16;;;;;;;10.00;9.10;;;15.10;99.90;;;;;;6068992;23;20511;-81
2022/09/25 00:52:44;;;;;;;8.10;7.40;;;15.10;99.90;;;;;;6068848;23;20481;-78
2022/09/25 00:55:12;;;;;;;7.30;6.70;;;15.10;99.90;;;;;;6068419;23;20575;-78
2022/09/25 00:57:42;;;;;;;7.63;7.00;;;15.10;99.90;;;;;;6068336;23;20451;-78
2022/09/25 01:00:13;;;;;;;7.77;6.97;;;15.10;99.90;;;;;;6069263;23;20923;-78
2022/09/25 01:02:44;;;;;;;7.37;6.87;;;15.20;99.90;;;;;;6068811;23;21118;-80
2022/09/25 01:05:15;;;;;;;8.63;7.83;;;15.20;99.90;;;;;;6069433;23;20440;-80
2022/09/25 01:07:44;;;;;;;6.77;6.27;;;15.20;99.90;;;;;;6068783;23;20431;-80
2022/09/25 01:10:12;;;;;;;7.93;7.23;;;15.20;99.90;;;;;;6068552;23;20714;-80
2022/09/25 01:12:42;;;;;;;7.60;7.00;;;15.20;99.90;;;;;;6070496;23;20441;-77
2022/09/25 01:15:13;;;;;;;7.33;6.63;;;15.20;99.90;;;;;;6069279;23;20441;-77
2022/09/25 01:18:07;;;;;;;7.07;6.47;;;15.20;99.90;;;;;;6067822;23;20440;-77
2022/09/25 01:20:50;;;;;;;5.73;5.33;;;15.20;99.90;;;;;;6068293;23;20440;-78
2022/09/25 01:23:30;;;;;;;7.20;6.30;;;15.30;99.90;;;;;;6068796;23;20447;-80
2022/09/25 01:26:14;;;;;;;7.10;6.50;;;15.30;99.90;;;;;;6068791;23;20429;-81
2022/09/25 01:29:02;;;;;;;5.77;5.27;;;15.30;99.90;;;;;;6068262;23;20976;-80
2022/09/25 01:31:35;;;;;;;7.07;6.57;;;15.30;99.90;;;;;;6068902;23;20444;-80
2022/09/25 01:34:12;;;;;;;7.77;7.07;;;15.30;99.90;;;;;;6069546;23;20425;-78
2022/09/25 01:36:46;;;;;;;6.13;5.63;;;15.30;99.90;;;;;;6068584;23;20491;-80
2022/09/25 01:39:20;;;;;;;6.17;5.73;;;15.30;99.90;;;;;;6069322;23;20432;-81
2022/09/25 01:41:52;;;;;;;6.60;6.10;;;15.30;99.90;;;;;;6051599;23;20506;-81
2022/09/25 01:44:28;;;;;;;7.03;6.33;;;15.30;99.90;;;;;;6069231;23;20436;-78
2022/09/25 01:46:59;;;;;;;7.33;6.73;;;15.30;99.90;;;;;;6068077;23;20769;-80
2022/09/25 01:49:30;;;;;;;6.33;5.93;;;15.30;99.90;;;;;;6068660;23;20507;-80
2022/09/25 01:51:59;;;;;;;6.80;6.30;;;15.30;99.90;;;;;;6066727;23;20451;-80
2022/09/25 01:54:31;;;;;;;7.30;6.70;;;15.30;99.90;;;;;;6068733;23;20915;-77
2022/09/25 01:57:03;;;;;;;6.43;5.80;;;15.20;99.90;;;;;;6067551;23;20525;-77
2022/09/25 01:59:37;;;;;;;7.10;6.50;;;15.20;99.90;;;;;;6068917;23;20447;-80
2022/09/25 02:02:12;;;;;;;6.60;6.10;;;15.30;99.90;;;;;;6066731;23;20440;-80
2022/09/25 02:04:42;;;;;;;6.70;6.00;;;15.30;99.90;;;;;;6068176;23;20446;-78
2022/09/25 02:07:13;;;;;;;7.10;6.60;;;15.30;99.90;;;;;;6053959;23;20526;-77
2022/09/25 02:09:46;;;;;;;6.40;5.90;;;15.30;99.90;;;;;;6067795;23;20527;-80
2022/09/25 02:12:18;;;;;;;6.63;6.10;;;15.30;99.90;;;;;;6068050;23;20439;-79
2022/09/25 02:14:50;;;;;;;6.83;6.33;;;15.40;99.90;;;;;;6068629;23;20496;-77
2022/09/25 02:22:54;;;;;;;8.27;7.67;;;15.30;99.90;;;;;;6068844;23;20446;-77
2022/09/25 02:25:30;;;;;;;8.20;7.50;;;15.30;99.90;;;;;;6066711;23;20447;-80
2022/09/25 02:27:57;;;;;;;7.87;7.27;;;15.30;99.90;;;;;;6067775;23;20440;-77
2022/09/25 02:30:27;;;;;;;7.20;6.50;;;15.30;99.90;;;;;;6068539;23;20432;-77
2022/09/25 02:32:56;;;;;;;6.60;6.10;;;15.30;99.90;;;;;;6067994;23;20947;-79
2022/09/25 02:35:24;;;;;;;5.87;5.37;;;15.40;99.90;;;;;;6067273;23;20452;-76
2022/09/25 02:37:52;;;;;;;7.20;6.70;;;15.40;99.90;;;;;;6069146;23;20443;-79
2022/09/25 02:40:21;;;;;;;7.00;6.50;;;15.30;99.90;;;;;;6069840;23;20792;-76
2022/09/25 02:42:56;;;;;;;6.60;6.00;;;15.30;99.90;;;;;;6070102;23;20987;-77
2022/09/25 02:45:48;;;;;;;5.10;4.60;;;15.30;99.90;;;;;;6069693;23;20436;-77
2022/09/25 02:48:28;;;;;;;5.70;5.30;;;15.40;99.90;;;;;;6066544;23;20908;-77
2022/09/25 02:51:02;;;;;;;6.17;5.60;;;15.30;99.90;;;;;;6042904;23;20508;-79
2022/09/25 02:53:39;;;;;;;6.27;5.77;;;15.40;99.90;;;;;;6070487;23;20443;-79
2022/09/25 02:56:12;;;;;;;5.70;4.73;;;15.40;99.90;;;;;;6070617;23;20440;-79
2022/09/25 02:58:42;;;;;;;6.23;5.80;;;15.40;99.90;;;;;;6068136;23;20440;-77
2022/09/25 03:01:14;;;;;;;6.63;6.13;;;15.40;99.90;;;;;;6070288;23;20443;-77
2022/09/25 03:03:47;;;;;;;6.90;6.30;;;15.40;99.90;;;;;;6056624;23;20437;-77
2022/09/25 03:06:14;;;;;;;6.37;5.87;;;15.40;99.90;;;;;;6069202;23;20456;-78
2022/09/25 03:08:45;;;;;;;6.47;5.97;;;15.40;99.90;;;;;;6069581;23;20757;-77
2022/09/25 03:11:14;;;;;;;6.20;5.70;;;15.40;99.90;;;;;;6070462;23;20433;-79
2022/09/25 03:13:42;;;;;;;6.57;6.07;;;15.40;99.90;;;;;;6070034;23;20448;-78
2022/09/25 03:16:17;;;;;;;7.27;6.63;;;15.40;99.90;;;;;;6070177;23;20924;-77
2022/09/25 03:18:44;;;;;;;6.53;6.03;;;15.40;99.90;;;;;;6071895;23;20444;-77
2022/09/25 03:21:11;;;;;;;6.70;6.10;;;15.40;99.90;;;;;;6069661;23;20527;-77
2022/09/25 03:23:38;;;;;;;6.70;6.20;;;15.40;99.90;;;;;;6070027;23;20440;-78
2022/09/25 03:26:06;;;;;;;7.20;6.53;;;15.40;99.90;;;;;;6070745;23;20443;-79
2022/09/25 03:28:34;;;;;;;6.33;5.83;;;15.30;99.90;;;;;;6070513;23;20499;-77
2022/09/25 03:31:02;;;;;;;6.30;5.70;;;15.40;99.90;;;;;;6070092;23;20431;-77
2022/09/25 03:33:35;;;;;;;5.73;5.30;;;15.40;99.90;;;;;;6070214;23;20537;-78
2022/09/25 03:36:08;;;;;;;6.00;5.60;;;15.40;99.90;;;;;;6070083;23;20905;-79
2022/09/25 03:38:35;;;;;;;6.70;6.10;;;15.40;99.90;;;;;;6069635;23;20505;-80
2022/09/25 03:41:04;;;;;;;6.73;6.23;;;15.40;99.90;;;;;;6069456;23;20428;-80
2022/09/25 03:43:35;;;;;;;6.70;6.20;;;15.40;99.90;;;;;;6052802;23;20912;-79
2022/09/25 03:46:08;;;;;;;7.27;6.67;;;15.40;99.90;;;;;;6050390;23;20799;-80
2022/09/25 03:48:37;;;;;;;6.93;6.37;;;15.40;99.90;;;;;;6069642;23;20439;-78
2022/09/25 03:51:20;;;;;;;7.53;7.03;;;15.40;99.90;;;;;;6069362;23;20436;-81
2022/09/25 03:53:48;;;;;;;8.10;7.30;;;15.40;99.90;;;;;;6070230;23;20769;-81
2022/09/25 03:56:18;;;;;;;6.13;5.63;;;15.40;99.90;;;;;;6069607;23;20429;-78
2022/09/25 03:58:47;;;;;;;6.47;5.97;;;15.30;99.90;;;;;;6069359;23;20503;-81
2022/09/25 04:01:15;;;;;;;7.03;6.53;;;15.30;99.90;;;;;;6068915;23;20495;-80
2022/09/25 04:03:46;;;;;;;5.90;5.40;;;15.30;99.90;;;;;;6069550;23;20441;-78
2022/09/25 04:06:17;;;;;;;6.50;6.00;;;15.30;99.90;;;;;;6068662;23;20432;-78
2022/09/25 04:08:47;;;;;;;6.67;6.17;;;15.30;99.90;;;;;;6069080;23;20436;-81
2022/09/25 04:11:15;;;;;;;6.13;5.73;;;15.30;99.90;;;;;;6054194;23;20507;-81
2022/09/25 04:13:43;;;;;;;6.73;6.10;;;15.30;99.90;;;;;;6069192;23;20948;-81
2022/09/25 04:16:10;;;;;;;7.07;6.30;;;15.30;99.90;;;;;;6068380;23;20520;-78
2022/09/25 04:18:39;;;;;;;7.43;6.37;;;15.30;99.90;;;;;;6062729;23;20432;-79
2022/09/25 04:21:09;;;;;;;7.90;7.27;;;15.30;99.90;;;;;;6067059;23;20440;-81
2022/09/25 04:24:47;;;;;;;6.83;6.20;;;15.20;99.90;;;;;;6068217;23;20508;-79
2022/09/25 04:27:00;;;;;;;6.23;5.83;;;15.20;99.90;;;;;;6070712;23;20443;-79
2022/09/25 04:29:30;;;;;;;7.90;7.30;;;15.20;99.90;;;;;;6066095;23;20467;-79
2022/09/25 04:34:42;;;;;;;7.90;7.30;;;15.20;99.90;;;;;;6065648;23;20435;-80
2022/09/25 04:37:19;;;;;;;8.80;8.00;;;15.20;99.90;;;;;;6064787;23;20447;-77
2022/09/25 04:39:54;;;;;;;8.27;7.57;;;15.20;99.90;;;;;;6068110;23;20463;-77
2022/09/25 04:42:24;;;;;;;9.17;8.47;;;15.20;99.90;;;;;;6054552;23;20515;-80
2022/09/25 04:44:53;;;;;;;8.20;7.60;;;15.20;99.90;;;;;;6067953;23;20425;-77
2022/09/25 04:47:21;;;;;;;7.93;7.20;;;15.20;99.90;;;;;;6068948;23;20436;-78
2022/09/25 04:50:02;;;;;;;9.07;8.17;;;15.20;99.90;;;;;;6050878;23;20563;-81
2022/09/25 04:52:37;;;;;;;8.60;7.90;;;15.10;99.90;;;;;;6066799;23;20526;-80
2022/09/25 04:55:06;;;;;;;10.07;9.07;;;15.10;99.90;;;;;;6067101;23;20866;-79
2022/09/25 04:57:33;;;;;;;9.13;8.33;;;15.00;99.90;;;;;;6054705;23;20450;-77
2022/09/25 05:00:00;;;;;;;9.03;8.33;;;15.00;99.90;;;;;;6067919;23;20444;-81
2022/09/25 05:02:28;;;;;;;9.70;8.47;;;15.00;99.90;;;;;;6067838;23;20436;-81
2022/09/25 05:04:56;;;;;;;8.27;7.50;;;15.00;99.90;;;;;;6057388;23;20433;-80
2022/09/25 05:07:23;;;;;;;7.50;6.90;;;15.00;99.90;;;;;;6069263;23;20513;-78
2022/09/25 05:09:52;;;;;;;8.40;7.70;;;15.00;99.90;;;;;;6068049;23;20988;-80
2022/09/25 05:12:19;;;;;;;7.90;7.20;;;15.00;99.90;;;;;;6069019;23;20448;-78
2022/09/25 05:14:46;;;;;;;8.90;8.10;;;15.00;99.90;;;;;;6068747;23;20909;-81
2022/09/25 05:17:13;;;;;;;7.30;6.60;;;15.00;99.90;;;;;;6068329;23;20436;-80
2022/09/25 05:19:47;;;;;;;8.90;8.10;;;15.10;99.90;;;;;;6067655;23;20912;-77
2022/09/25 05:22:14;;;;;;;8.67;8.07;;;15.00;99.90;;;;;;6068281;23;20436;-77
2022/09/25 05:24:41;;;;;;;7.73;7.03;;;15.10;99.90;;;;;;6069519;23;20471;-80
2022/09/25 05:27:09;;;;;;;7.03;6.50;;;15.10;99.90;;;;;;6056880;23;20504;-80
2022/09/25 05:29:37;;;;;;;7.53;6.93;;;15.10;99.90;;;;;;6069069;23;20916;-80
2022/09/25 05:32:04;;;;;;;8.67;7.97;;;15.10;99.90;;;;;;6068455;23;20452;-80
2022/09/25 05:34:31;;;;;;;9.17;8.37;;;15.10;99.90;;;;;;6069193;23;20455;-77
2022/09/25 05:36:58;;;;;;;8.60;7.93;;;15.00;99.90;;;;;;6068390;23;20500;-78
2022/09/25 05:39:25;;;;;;;8.97;8.17;;;15.00;99.90;;;;;;6069063;23;20456;-77
2022/09/25 05:41:52;;;;;;;10.80;9.80;;;15.10;99.90;;;;;;6068520;23;20920;-80
2022/09/25 05:44:21;;;;;;;10.60;9.50;;;15.10;99.90;;;;;;6057014;23;20444;-77
2022/09/25 05:46:55;;;;;;;9.10;8.20;;;15.10;99.90;;;;;;6068663;23;20463;-78
2022/09/25 05:49:22;;;;;;;9.17;8.37;;;15.10;99.90;;;;;;6067575;23;20432;-77
2022/09/25 05:51:49;;;;;;;10.87;9.87;;;15.00;99.90;;;;;;6055733;23;20530;-78
2022/09/25 05:54:16;;;;;;;8.10;7.50;;;15.00;99.90;;;;;;6067796;23;20816;-80
2022/09/25 05:56:43;;;;;;;9.20;8.40;;;15.00;99.90;;;;;;6068736;23;20441;-80
2022/09/25 05:59:12;;;;;;;10.10;9.10;;;15.00;99.90;;;;;;6068012;23;20467;-78
2022/09/25 06:01:40;;;;;;;9.93;8.93;;;15.00;99.90;;;;;;6070471;23;20461;-77
2022/09/25 06:04:09;;;;;;;10.93;9.93;;;15.00;99.90;;;;;;6069120;23;20441;-77
2022/09/25 06:06:41;;;;;;;11.27;10.20;;;15.00;99.90;;;;;;6069629;23;20758;-78
2022/09/25 06:09:19;;;;;;;10.25;9.32;;;15.00;99.90;;;;;;6068856;23;20506;-79
2022/09/25 06:12:18;;;;;;;11.37;10.30;;;15.00;99.90;;;;;;6054671;23;20208;-79
2022/09/25 06:14:55;;;;;;;10.30;9.50;;;15.00;99.90;;;;;;6055174;23;20812;-81
2022/09/25 06:17:28;;;;;;;11.57;10.10;;;15.00;99.90;;;;;;6051853;23;20433;-79
2022/09/25 06:20:21;;;;;;;10.00;8.90;;;15.00;99.90;;;;;;6041096;23;20460;-80
2022/09/25 06:23:31;;;;;;;9.97;8.97;;;15.10;99.90;;;;;;6054898;23;20440;-80
2022/09/25 06:26:11;;;;;;;9.57;8.73;;;15.10;99.90;;;;;;6060868;23;20435;-77
2022/09/25 06:28:55;;;;;;;9.30;8.50;;;15.20;99.90;;;;;;6084158;23;20527;-80
2022/09/25 06:31:22;;;;;;;10.43;9.53;;;15.20;99.90;;;;;;6065058;23;20439;-80
2022/09/25 06:34:03;;;;;;;11.17;10.17;;;15.30;99.90;;;;;;6075324;23;20439;-81
2022/09/25 06:36:30;;;;;;;8.57;7.87;;;15.30;99.90;;;;;;6086730;23;20445;-80
2022/09/25 06:38:57;;;;;;;9.77;8.87;;;15.40;99.90;;;;;;6071624;23;20432;-79
2022/09/25 06:41:24;;;;;;;12.33;10.90;;;15.40;99.90;;;;;;6072562;23;20441;-78
2022/09/25 06:44:13;;;;;;;11.03;10.13;;;15.30;99.90;;;;;;6071758;23;20433;-80
2022/09/25 06:46:59;;;;;;;10.03;9.03;;;15.30;99.90;;;;;;6066044;23;20876;-78
2022/09/25 06:49:29;;;;;;;9.27;8.37;;;15.40;99.90;;;;;;6067382;23;20503;-79
2022/09/25 06:51:59;;;;;;;10.87;9.97;;;15.40;99.90;;;;;;6065815;23;20514;-81
2022/09/25 06:54:36;;;;;;;9.73;8.93;;;15.40;99.90;;;;;;6074827;23;20435;-79
2022/09/25 06:57:21;;;;;;;10.33;9.47;;;15.50;99.90;;;;;;6066734;23;20438;-80
2022/09/25 07:00:00;;;;;;;9.80;8.90;;;15.50;99.90;;;;;;6066585;23;20507;-81
2022/09/25 07:05:21;;;;;;;11.23;10.23;;;15.60;99.90;;;;;;6064432;23;20782;-78
2022/09/25 07:07:56;;;;;;;14.93;10.10;;;15.60;99.90;;;;;;6065780;23;20924;-78
2022/09/25 07:10:25;;;;;;;12.67;11.53;;;15.70;99.90;;;;;;6063333;23;20432;-77
2022/09/25 07:12:52;;;;;;;10.90;9.90;;;15.60;99.90;;;;;;6076815;23;20440;-79
2022/09/25 07:15:21;;;;;;;11.83;10.83;;;15.70;99.90;;;;;;6096330;23;20439;-80
2022/09/25 07:17:48;;;;;;;10.23;9.10;;;15.70;99.90;;;;;;6097068;23;20439;-80
2022/09/25 07:20:17;;;;;;;10.47;9.63;;;15.70;99.90;;;;;;6096872;23;20447;-80
2022/09/25 07:22:44;;;;;;;8.50;7.83;;;15.70;99.90;;;;;;6096485;23;20804;-80
2022/09/25 07:25:13;;;;;;;14.53;11.03;;;15.80;99.90;;;;;;6097473;23;20514;-77
2022/09/25 07:27:40;;;;;;;10.80;10.00;;;15.80;99.90;;;;;;6098782;23;20514;-78
2022/09/25 07:30:09;;;;;;;10.43;9.10;;;15.80;99.90;;;;;;6097776;23;20439;-78
2022/09/25 07:32:39;;;;;;;11.27;10.40;;;15.80;99.90;;;;;;6098760;23;20796;-79
2022/09/25 07:35:07;;;;;;;9.77;8.93;;;15.80;99.90;;;;;;6098243;23;20736;-77
2022/09/25 07:37:39;;;;;;;14.40;13.20;;;15.90;99.90;;;;;;6098702;23;20435;-79
2022/09/25 07:40:11;;;;;;;12.47;11.47;;;15.90;99.90;;;;;;6098702;23;20436;-78
2022/09/25 07:42:38;;;;;;;12.73;11.50;;;16.00;99.90;;;;;;6098713;23;20916;-78
2022/09/25 07:45:06;;;;;;;10.90;10.00;;;16.00;99.90;;;;;;6098807;23;20440;-80
2022/09/25 07:47:33;;;;;;;11.10;10.10;;;16.10;99.90;;;;;;6099026;23;20526;-78
2022/09/25 07:50:00;;;;;;;11.40;10.40;;;16.20;99.90;;;;;;6098888;23;20797;-80
2022/09/25 07:52:30;;;;;;;13.00;11.90;;;16.20;99.90;;;;;;6098089;23;20435;-79
2022/09/25 07:54:58;;;;;;;12.17;11.10;;;16.30;99.90;;;;;;6098714;23;20752;-78
2022/09/25 07:57:26;;;;;;;11.23;10.13;;;16.30;99.90;;;;;;6097831;23;20436;-78
2022/09/25 07:59:56;;;;;;;10.83;9.90;;;16.40;99.90;;;;;;6098421;23;20524;-80
2022/09/25 08:02:23;;;;;;;11.20;10.07;;;16.30;99.90;;;;;;6099011;23;20504;-80
2022/09/25 08:04:50;;;;;;;11.57;10.37;;;16.40;99.90;;;;;;6098197;23;20499;-78
2022/09/25 08:07:18;;;;;;;12.00;11.00;;;16.40;99.90;;;;;;6097741;23;20441;-78
2022/09/25 08:09:45;;;;;;;12.83;11.43;;;16.50;99.90;;;;;;6098932;23;20431;-80
2022/09/25 08:12:13;;;;;;;12.50;11.40;;;16.50;99.90;;;;;;6097424;23;20945;-78
2022/09/25 08:14:40;;;;;;;14.53;13.20;;;16.50;99.90;;;;;;6098739;23;20424;-80
2022/09/25 08:17:07;;;;;;;12.67;11.50;;;16.50;99.90;;;;;;6097539;23;20508;-79
2022/09/25 08:19:35;;;;;;;12.00;11.00;;;16.60;99.90;;;;;;6098606;23;20745;-78
2022/09/25 08:22:09;;;;;;;12.90;11.80;;;16.60;99.90;;;;;;6098497;23;20811;-77
2022/09/25 08:24:36;;;;;;;11.93;10.83;;;16.60;99.90;;;;;;6097487;23;20701;-81
2022/09/25 08:27:03;;;;;;;10.30;9.40;;;16.60;99.90;;;;;;6098357;23;20780;-79
2022/09/25 08:29:34;;;;;;;12.57;11.47;;;16.70;99.90;;;;;;6097359;23;20801;-80
2022/09/25 08:32:02;;;;;;;12.17;11.07;;;16.70;99.90;;;;;;6098230;23;20939;-78
2022/09/25 08:34:29;;;;;;;11.83;10.70;;;16.70;99.90;;;;;;6097119;23;20994;-81
2022/09/25 08:36:59;;;;;;;13.93;12.47;;;16.80;99.90;;;;;;6097947;23;20511;-81
2022/09/25 08:39:30;;;;;;;11.20;10.20;;;16.80;99.90;;;;;;6097610;23;20786;-80
2022/09/25 08:41:59;;;;;;;11.13;10.23;;;16.90;99.90;;;;;;6098189;23;20446;-81
2022/09/25 08:50:27;;;;;;;13.43;11.67;;;17.10;99.90;;;;;;6096937;23;20448;-77
2022/09/25 08:53:05;;;;;;;14.00;12.60;;;17.20;99.90;;;;;;6098410;23;20541;-78
2022/09/25 08:58:23;;;;;;;12.13;11.03;;;17.20;99.90;;;;;;6074016;23;20723;-77
2022/09/25 09:00:53;;;;;;;11.53;10.33;;;17.30;99.90;;;;;;6096840;23;20858;-81
2022/09/25 09:03:29;;;;;;;10.23;9.43;;;17.30;99.90;;;;;;6097669;23;20445;-78
2022/09/25 09:06:09;;;;;;;12.90;11.80;;;17.40;99.90;;;;;;6095075;23;20440;-79
2022/09/25 09:30:40;;;;;;;12.13;10.93;;;17.70;99.90;;;;;;5978102;24;20461;-95
2022/09/25 09:33:41;;;;;;;12.43;11.30;;;17.70;99.90;;;;;;6052924;23;20465;-81
2022/09/25 09:36:21;;;;;;;11.50;10.40;;;17.70;99.90;;;;;;6004170;23;20528;-79
2022/09/25 09:39:09;;;;;;;11.97;10.93;;;17.80;99.90;;;;;;6028223;23;20533;-80
2022/09/25 09:42:00;;;;;;;11.33;10.33;;;17.80;99.90;;;;;;6043798;23;20494;-80
2022/09/25 09:44:40;;;;;;;14.83;12.83;;;17.80;99.90;;;;;;6069044;23;20547;-79
2022/09/25 09:47:23;;;;;;;13.43;12.23;;;17.80;99.90;;;;;;6069583;23;20458;-78
2022/09/25 09:49:56;;;;;;;10.17;9.20;;;17.80;99.90;;;;;;6056097;23;20454;-78
2022/09/25 09:52:26;;;;;;;9.70;8.90;;;17.80;99.90;;;;;;6068450;23;20477;-78
2022/09/25 09:54:59;;;;;;;11.70;10.70;;;17.80;99.90;;;;;;6048754;23;20423;-79
2022/09/25 09:57:33;;;;;;;12.40;11.20;;;17.90;99.90;;;;;;6070813;23;20439;-80
2022/09/25 10:00:05;;;;;;;11.43;10.47;;;17.90;99.90;;;;;;6044330;23;20433;-79
2022/09/25 10:02:46;;;;;;;11.27;10.23;;;18.00;99.90;;;;;;6077166;23;20444;-79
2022/09/25 10:05:18;;;;;;;10.70;9.80;;;18.00;99.90;;;;;;6046644;23;20437;-78
2022/09/25 10:07:48;;;;;;;11.20;10.17;;;18.00;99.90;;;;;;6075688;23;20515;-80
2022/09/25 10:10:17;;;;;;;10.40;9.50;;;18.10;99.90;;;;;;6075135;23;20703;-79
2022/09/25 10:12:49;;;;;;;10.43;9.60;;;18.10;99.90;;;;;;6071442;23;20440;-78
2022/09/25 10:15:27;;;;;;;10.93;9.93;;;18.10;99.90;;;;;;6072113;23;20452;-80
2022/09/25 10:17:55;;;;;;;10.50;9.50;;;18.10;99.90;;;;;;6057969;23;20444;-78
2022/09/25 10:20:24;;;;;;;11.80;10.63;;;18.10;99.90;;;;;;6056275;23;20754;-81
2022/09/25 10:22:57;;;;;;;10.77;9.83;;;18.10;99.90;;;;;;6072092;23;20462;-78
2022/09/25 10:25:37;;;;;;;10.50;9.70;;;18.10;99.90;;;;;;6073004;23;20440;-81
2022/09/25 10:28:23;;;;;;;11.07;10.07;;;18.10;99.90;;;;;;6060128;23;20430;-81
2022/09/25 10:31:06;;;;;;;12.83;11.17;;;18.20;99.90;;;;;;6078301;23;20451;-80
2022/09/25 10:33:37;;;;;;;11.30;10.30;;;18.20;99.90;;;;;;6071243;23;20440;-79
2022/09/25 10:36:13;;;;;;;13.03;11.90;;;18.20;99.90;;;;;;6071077;23;20439;-78
2022/09/25 10:38:47;;;;;;;14.60;13.20;;;18.30;99.90;;;;;;6069684;23;20440;-78
2022/09/25 10:41:19;;;;;;;13.10;11.60;;;18.30;99.90;;;;;;6072849;23;20455;-77
2022/09/25 10:43:52;;;;;;;11.17;10.17;;;18.30;99.90;;;;;;6071041;23;20486;-78
2022/09/25 10:52:05;;;;;;;13.67;12.43;;;18.40;99.90;;;;;;6048335;23;20473;-79
2022/09/25 10:54:32;;;;;;;12.07;10.97;;;18.40;99.90;;;;;;6049103;23;20433;-80
2022/09/25 10:57:00;;;;;;;12.03;11.03;;;18.40;99.90;;;;;;6052181;23;20442;-80
2022/09/25 10:59:31;;;;;;;14.17;12.90;;;18.40;99.90;;;;;;6051169;23;20917;-80
2022/09/25 11:02:11;;;;;;;12.97;11.70;;;18.40;99.90;;;;;;6054049;23;20477;-80
2022/09/25 11:04:38;;;;;;;11.97;10.87;;;18.40;99.90;;;;;;6050847;23;20433;-79
2022/09/25 11:07:14;;;;;;;12.70;11.50;;;18.50;99.90;;;;;;6057513;23;20496;-79
2022/09/25 11:09:47;;;;;;;12.37;11.20;;;18.50;99.90;;;;;;6050680;23;20921;-79
2022/09/25 11:12:22;;;;;;;13.53;12.40;;;18.50;99.90;;;;;;6078820;23;20496;-80
2022/09/25 11:14:57;;;;;;;11.97;10.70;;;18.50;99.90;;;;;;6081392;23;20528;-80
2022/09/25 11:17:37;;;;;;;10.83;9.93;;;18.60;99.90;;;;;;6032634;23;20425;-78
2022/09/25 11:20:28;;;;;;;11.30;10.40;;;18.60;99.90;;;;;;6046610;23;20437;-80
2022/09/25 11:23:13;;;;;;;12.03;10.83;;;18.70;99.90;;;;;;6052177;23;20441;-80
2022/09/25 11:25:56;;;;;;;11.87;10.77;;;18.70;99.90;;;;;;6052254;23;20753;-78
2022/09/25 11:28:32;;;;;;;11.27;10.17;;;18.80;99.90;;;;;;6031231;23;20468;-81
2022/09/25 11:31:07;;;;;;;10.43;9.53;;;18.90;99.90;;;;;;6040432;23;20437;-78
2022/09/25 11:33:44;;;;;;;9.70;8.90;;;18.90;99.90;;;;;;6033757;23;20980;-81
2022/09/25 11:36:21;;;;;;;9.67;8.57;;;19.00;99.90;;;;;;6045222;23;20448;-79
2022/09/25 11:41:42;;;;;;;10.30;9.30;;;19.10;99.90;;;;;;6048148;23;20444;-81
2022/09/25 11:44:18;;;;;;;9.33;8.07;;;19.20;99.90;;;;;;6044956;23;20449;-78
2022/09/25 11:47:00;;;;;;;8.80;7.97;;;19.30;99.90;;;;;;6043059;23;20730;-78
2022/09/25 11:49:35;;;;;;;9.67;8.70;;;19.30;99.90;;;;;;6044272;23;20476;-81
2022/09/25 11:52:21;;;;;;;8.97;8.20;;;19.40;99.90;;;;;;6044899;23;20445;-79
2022/09/25 11:55:26;;;;;;;7.57;6.97;;;19.40;99.90;;;;;;6045495;23;20435;-80
2022/09/25 11:58:02;;;;;;;9.57;8.67;;;19.40;99.90;;;;;;6071486;23;20787;-78
2022/09/25 12:00:43;;;;;;;8.07;7.20;;;19.40;99.90;;;;;;6070116;23;20451;-77
2022/09/25 12:03:50;;;;;;;8.83;7.80;;;19.50;99.90;;;;;;6070946;23;20460;-79
2022/09/25 12:06:47;;;;;;;9.03;7.53;;;19.50;99.90;;;;;;6068923;23;20513;-77
2022/09/25 12:09:37;;;;;;;9.33;8.43;;;19.60;99.90;;;;;;6069855;23;20437;-79
2022/09/25 12:12:11;;;;;;;7.20;6.60;;;19.60;99.90;;;;;;6056269;23;20432;-80
2022/09/25 12:14:50;;;;;;;8.73;8.03;;;19.60;99.90;;;;;;6041430;23;20484;-78
2022/09/25 12:17:26;;;;;;;8.57;7.87;;;19.70;99.90;;;;;;6041262;23;20433;-79
2022/09/25 12:20:02;;;;;;;9.10;8.20;;;19.60;99.90;;;;;;6039078;23;20441;-80
2022/09/25 12:22:44;;;;;;;8.47;7.77;;;19.60;99.90;;;;;;6041084;23;20753;-80
2022/09/25 12:25:34;;;;;;;7.77;7.17;;;19.60;99.90;;;;;;6041423;23;20528;-79
2022/09/25 12:28:07;;;;;;;7.63;6.93;;;19.60;99.90;;;;;;6040962;23;20433;-78
2022/09/25 12:30:40;;;;;;;7.83;7.20;;;19.60;99.90;;;;;;6040851;23;20509;-78
2022/09/25 12:33:22;;;;;;;8.43;7.63;;;19.60;99.90;;;;;;6039658;23;20524;-79
2022/09/25 12:35:55;;;;;;;8.30;7.50;;;19.60;99.90;;;;;;6041346;23;20802;-80
2022/09/25 12:38:36;;;;;;;8.03;7.30;;;19.60;99.90;;;;;;6055847;23;20472;-79
2022/09/25 12:41:11;;;;;;;7.83;7.03;;;19.60;99.90;;;;;;6069648;23;20441;-80
2022/09/25 12:43:46;;;;;;;9.20;8.50;;;19.60;99.90;;;;;;6069044;23;20904;-79
2022/09/25 12:46:20;;;;;;;9.40;8.50;;;19.50;99.90;;;;;;6069789;23;20439;-79
2022/09/25 12:48:52;;;;;;;11.50;8.17;;;19.50;99.90;;;;;;6071098;23;20496;-80
2022/09/25 12:51:24;;;;;;;10.53;8.20;;;19.60;99.90;;;;;;6070735;23;20805;-80
2022/09/25 12:53:58;;;;;;;8.00;7.20;;;19.60;99.90;;;;;;6057105;23;20991;-78
2022/09/25 12:56:31;;;;;;;7.40;6.70;;;19.50;99.90;;;;;;6041054;23;20430;-78
2022/09/25 12:59:10;;;;;;;6.77;6.17;;;19.50;99.90;;;;;;6041917;23;20468;-79
2022/09/25 13:01:45;;;;;;;8.70;7.10;;;19.50;99.90;;;;;;6042052;23;20461;-79
2022/09/25 13:04:51;;;;;;;7.40;6.80;;;19.50;99.90;;;;;;6041338;23;20445;-79
2022/09/25 13:07:28;;;;;;;7.23;6.63;;;19.50;99.90;;;;;;5957040;23;20449;-79
2022/09/25 13:09:57;;;;;;;5.90;5.40;;;19.50;99.90;;;;;;6041323;23;20499;-80
2022/09/25 13:12:39;;;;;;;6.87;6.27;;;19.50;99.90;;;;;;6042137;23;20449;-79
2022/09/25 13:15:12;;;;;;;7.40;6.70;;;19.40;99.90;;;;;;6041996;23;20437;-78
2022/09/25 13:17:39;;;;;;;7.70;6.87;;;19.40;99.90;;;;;;6040289;23;20516;-77
2022/09/25 13:20:42;;;;;;;7.97;7.27;;;19.40;99.90;;;;;;6041646;23;20497;-78
2022/09/25 13:23:13;;;;;;;8.30;7.60;;;19.40;99.90;;;;;;6069202;23;20437;-78
2022/09/25 13:25:52;;;;;;;6.80;6.20;;;19.40;99.90;;;;;;6070837;23;20436;-78
2022/09/25 13:28:26;;;;;;;6.77;6.17;;;19.40;99.90;;;;;;6073559;23;20432;-80
2022/09/25 13:31:02;;;;;;;7.53;6.93;;;19.40;99.90;;;;;;6072912;23;20468;-78
2022/09/25 13:33:31;;;;;;;7.13;6.50;;;19.40;99.90;;;;;;6070439;23;20452;-78
2022/09/25 13:36:21;;;;;;;7.80;7.20;;;19.50;99.90;;;;;;6072975;23;20447;-77
2022/09/25 13:41:49;;;;;;;8.77;8.00;;;19.50;99.90;;;;;;6069488;23;20794;-79
2022/09/25 13:44:40;;;;;;;9.13;8.20;;;19.50;99.90;;;;;;6068941;23;20769;-78
2022/09/25 13:47:52;;;;;;;7.17;6.60;;;19.40;99.90;;;;;;6068478;23;20441;-78
2022/09/25 13:50:28;;;;;;;6.97;6.37;;;19.40;99.90;;;;;;6068972;23;20717;-78
2022/09/25 13:53:20;;;;;;;7.07;6.37;;;19.40;99.90;;;;;;6049911;23;20954;-80
2022/09/25 13:56:25;;;;;;;7.33;6.70;;;19.50;99.90;;;;;;6059733;23;20437;-77
2022/09/25 13:59:19;;;;;;;8.97;7.63;;;19.50;99.90;;;;;;6067547;23;20524;-77
2022/09/25 14:01:48;;;;;;;8.07;7.47;;;19.50;99.90;;;;;;6068464;23;20451;-78
2022/09/25 14:04:36;;;;;;;9.10;8.40;;;19.50;99.90;;;;;;6067613;23;20488;-77
2022/09/25 14:07:23;;;;;;;7.80;7.20;;;19.50;99.90;;;;;;6067816;23;20440;-79
2022/09/25 14:09:53;;;;;;;8.20;7.50;;;19.50;99.90;;;;;;6074322;23;20440;-79
2022/09/25 14:12:33;;;;;;;9.87;8.93;;;19.50;99.90;;;;;;6072848;23;20447;-77